Time;durP1;ratioP1;P1;durP2;ratioP2;P2;SDS_P1;SDS_P2;PMS_P1;PMS_P2;Temp;Humidity;BMP_temperature;BMP_pressure;BME280_temperature;BME280_humidity;BME280_pressure;Samples;Min_cycle;Max_cycle;Signal;HPM_P1;HPM_P2
2022/09/19 00:00:24;;;;;;;10.02;3.10;;;;;;;7.60;100.00;101714.41;5072136;28;20063;-60
2022/09/19 00:02:49;;;;;;;11.02;3.53;;;;;;;7.56;100.00;101707.41;5072128;28;20036;-61
2022/09/19 00:05:15;;;;;;;13.45;3.30;;;;;;;7.59;100.00;101722.19;5072154;28;20078;-59
2022/09/19 00:07:40;;;;;;;11.68;3.08;;;;;;;7.55;100.00;101715.19;5071981;28;20454;-60
2022/09/19 00:10:06;;;;;;;9.07;3.00;;;;;;;7.53;100.00;101714.31;5071922;28;20036;-62
2022/09/19 00:12:31;;;;;;;11.63;3.33;;;;;;;7.53;100.00;101707.38;5070982;28;20628;-60
2022/09/19 00:14:57;;;;;;;13.07;3.45;;;;;;;7.38;100.00;101682.84;5071908;28;20032;-62
2022/09/19 00:17:22;;;;;;;18.00;3.63;;;;;;;7.44;100.00;101709.88;5071828;28;20724;-59
2022/09/19 00:19:48;;;;;;;11.40;3.15;;;;;;;7.48;100.00;101706.41;5071634;28;20040;-61
2022/09/19 00:22:13;;;;;;;15.02;3.25;;;;;;;7.45;100.00;101708.97;5071724;28;20438;-61
2022/09/19 00:24:49;;;;;;;11.15;3.30;;;;;;;7.46;100.00;101708.13;5071677;28;20051;-59
2022/09/19 00:27:26;;;;;;;11.63;3.22;;;;;;;7.43;100.00;101710.72;5071641;28;20028;-59
2022/09/19 00:29:53;;;;;;;9.57;3.33;;;;;;;7.43;100.00;101718.53;5070739;28;20360;-61
2022/09/19 00:32:23;;;;;;;12.30;2.92;;;;;;;7.39;100.00;101710.66;5071655;28;20448;-61
2022/09/19 00:34:53;;;;;;;11.90;2.88;;;;;;;7.29;100.00;101715.72;5071546;28;20036;-61
2022/09/19 00:37:20;;;;;;;12.65;3.00;;;;;;;7.25;100.00;101726.97;5071515;28;20036;-59
2022/09/19 00:39:46;;;;;;;12.23;3.53;;;;;;;7.17;100.00;101718.16;5071328;28;20416;-61
2022/09/19 00:42:20;;;;;;;11.55;3.40;;;;;;;7.22;100.00;101726.91;5071529;28;20040;-61
2022/09/19 00:45:11;;;;;;;11.02;3.25;;;;;;;7.24;100.00;101724.34;5071502;28;20386;-63
2022/09/19 00:47:45;;;;;;;13.57;3.13;;;;;;;7.19;100.00;101707.75;5071398;28;20024;-61
2022/09/19 00:50:31;;;;;;;11.98;3.17;;;;;;;7.25;100.00;101726.97;5071440;28;20063;-61
2022/09/19 00:53:02;;;;;;;11.95;2.90;;;;;;;7.26;100.00;101723.50;5071032;28;20050;-60
2022/09/19 00:55:27;;;;;;;11.73;2.85;;;;;;;7.21;100.00;101712.13;5071466;28;20062;-61
2022/09/19 00:58:05;;;;;;;9.15;3.10;;;;;;;7.20;100.00;101713.00;5070982;28;20443;-61
2022/09/19 01:00:33;;;;;;;11.35;3.17;;;;;;;7.24;100.00;101717.41;5071291;28;20428;-61
2022/09/19 01:02:59;;;;;;;13.35;3.00;;;;;;;7.25;100.00;101724.34;5071384;28;20105;-60
2022/09/19 01:05:42;;;;;;;9.77;2.45;;;;;;;7.23;100.00;101713.03;5071379;28;20044;-62
2022/09/19 01:08:49;;;;;;;12.20;2.97;;;;;;;7.25;100.00;101726.97;5071179;28;20467;-60
2022/09/19 01:11:45;;;;;;;13.60;2.85;;;;;;;7.24;100.00;101725.22;5070703;28;20459;-61
2022/09/19 01:14:29;;;;;;;9.07;2.65;;;;;;;7.25;100.00;101728.69;5071075;28;20464;-62
2022/09/19 01:17:06;;;;;;;10.05;3.00;;;;;;;7.18;100.00;101717.28;5070967;28;20036;-62
2022/09/19 01:19:46;;;;;;;13.13;2.95;;;;;;;7.22;100.00;101724.31;5071062;28;20527;-60
2022/09/19 01:22:31;;;;;;;8.32;3.00;;;;;;;7.23;100.00;101741.69;5071298;28;20372;-62
2022/09/19 01:24:58;;;;;;;11.20;2.90;;;;;;;7.16;100.00;101745.03;5071053;28;20097;-59
2022/09/19 01:27:54;;;;;;;14.38;3.05;;;;;;;7.19;100.00;101741.59;5070980;28;20041;-62
2022/09/19 01:30:20;;;;;;;11.95;2.90;;;;;;;7.20;100.00;101745.97;5071226;28;20040;-61
2022/09/19 01:32:56;;;;;;;13.90;2.95;;;;;;;7.20;100.00;101739.03;5071279;28;20483;-60
2022/09/19 01:35:30;;;;;;;8.43;2.58;;;;;;;7.18;100.00;101742.44;5071190;28;20032;-61
2022/09/19 01:38:07;;;;;;;11.77;3.05;;;;;;;7.17;100.00;101749.38;5070735;28;20148;-60
2022/09/19 01:40:34;;;;;;;11.38;3.30;;;;;;;7.15;100.00;101748.47;5070623;28;20037;-60
2022/09/19 01:43:00;;;;;;;10.48;2.70;;;;;;;7.06;100.00;101743.16;5070980;28;20147;-61
2022/09/19 01:45:33;;;;;;;9.93;2.65;;;;;;;7.12;100.00;101752.75;5070517;28;20056;-59
2022/09/19 01:48:01;;;;;;;12.93;2.85;;;;;;;7.13;100.00;101746.69;5074559;28;20032;-60
2022/09/19 01:50:52;;;;;;;11.52;2.80;;;;;;;7.11;100.00;101751.88;5074100;28;20047;-61
2022/09/19 01:53:40;;;;;;;11.23;2.90;;;;;;;7.09;100.00;101743.22;5074381;28;20028;-61
2022/09/19 01:56:11;;;;;;;12.82;2.78;;;;;;;7.17;100.00;101752.00;5074204;28;20447;-59
2022/09/19 01:58:49;;;;;;;14.15;3.00;;;;;;;7.20;100.00;101752.03;5074137;28;20054;-59
2022/09/19 02:01:25;;;;;;;8.95;2.60;;;;;;;7.16;100.00;101737.22;5074351;28;20041;-61
2022/09/19 02:04:03;;;;;;;9.60;2.60;;;;;;;7.23;100.00;101746.88;5074212;28;20036;-61
2022/09/19 02:06:50;;;;;;;12.52;3.00;;;;;;;7.18;100.00;101743.31;5073975;28;20085;-60
2022/09/19 02:09:36;;;;;;;11.50;2.67;;;;;;;7.27;100.00;101751.25;5073929;28;20112;-59
2022/09/19 02:12:03;;;;;;;13.00;2.75;;;;;;;7.15;100.00;101734.59;5074084;28;20083;-60
2022/09/19 02:14:32;;;;;;;12.77;2.80;;;;;;;7.11;100.00;101736.25;5074127;28;20028;-62
2022/09/19 02:17:06;;;;;;;10.68;2.55;;;;;;;7.16;100.00;101745.03;5073759;28;20489;-60
2022/09/19 02:19:50;;;;;;;8.43;2.67;;;;;;;7.17;100.00;101749.38;5073824;28;20436;-58
2022/09/19 02:22:27;;;;;;;15.23;2.97;;;;;;;7.13;100.00;101744.97;5073884;28;20325;-58
2022/09/19 02:24:56;;;;;;;15.38;3.45;;;;;;;7.12;100.00;101755.38;5073940;28;20047;-58
2022/09/19 02:27:28;;;;;;;11.65;2.72;;;;;;;7.06;100.00;101757.88;5073581;28;20102;-61
2022/09/19 02:30:00;;;;;;;11.48;2.90;;;;;;;7.11;100.00;101758.81;5074018;28;20055;-61
2022/09/19 02:32:26;;;;;;;9.85;2.70;;;;;;;7.09;100.00;101766.63;5073781;28;20106;-60
2022/09/19 02:34:53;;;;;;;10.48;3.15;;;;;;;7.07;100.00;101760.53;5073823;28;20051;-59
2022/09/19 02:37:47;;;;;;;12.10;2.90;;;;;;;7.06;100.00;101763.97;5073678;28;20032;-59
2022/09/19 02:40:39;;;;;;;14.73;2.75;;;;;;;7.02;100.00;101767.38;5073332;28;20410;-61
2022/09/19 02:43:20;;;;;;;18.77;3.38;;;;;;;6.99;100.00;101756.91;5073601;28;20032;-61
2022/09/19 02:45:51;;;;;;;12.30;2.30;;;;;;;7.01;100.00;101772.53;5073465;28;20057;-59
2022/09/19 02:48:35;;;;;;;10.60;2.47;;;;;;;7.02;100.00;101779.50;5073362;28;20029;-60
2022/09/19 02:51:20;;;;;;;14.40;3.00;;;;;;;6.93;100.00;101772.41;5073187;28;20040;-61
2022/09/19 02:53:56;;;;;;;14.10;3.17;;;;;;;6.97;100.00;101774.22;5073217;28;20090;-61
2022/09/19 02:56:28;;;;;;;13.65;2.90;;;;;;;6.95;100.00;101770.72;5073066;28;20343;-61
2022/09/19 02:59:00;;;;;;;13.38;2.95;;;;;;;6.95;100.00;101770.72;5071945;28;20386;-61
2022/09/19 03:01:29;;;;;;;8.90;2.67;;;;;;;6.92;100.00;101770.69;5073108;28;20040;-61
2022/09/19 03:04:11;;;;;;;11.05;2.55;;;;;;;6.92;100.00;101775.91;5073034;28;20040;-59
2022/09/19 03:06:42;;;;;;;17.98;3.03;;;;;;;6.92;100.00;101773.28;5073022;28;20308;-61
2022/09/19 03:09:09;;;;;;;12.68;2.75;;;;;;;6.85;100.00;101767.09;5072881;28;20063;-60
2022/09/19 03:11:38;;;;;;;14.82;3.00;;;;;;;6.90;100.00;101777.59;5072805;28;20126;-61
2022/09/19 03:14:05;;;;;;;10.95;2.92;;;;;;;6.89;100.00;101775.84;5072869;28;20078;-60
2022/09/19 03:16:35;;;;;;;13.38;2.70;;;;;;;6.84;100.00;101775.75;5072283;28;20527;-59
2022/09/19 03:19:04;;;;;;;13.07;2.60;;;;;;;6.82;100.00;101768.75;5072750;28;20097;-58
2022/09/19 03:21:30;;;;;;;9.55;2.50;;;;;;;6.84;100.00;101782.69;5072656;28;20040;-61
2022/09/19 03:23:58;;;;;;;8.05;2.45;;;;;;;6.82;100.00;101772.25;5072560;28;20036;-61
2022/09/19 03:26:28;;;;;;;9.23;2.70;;;;;;;6.78;100.00;101774.75;5072366;28;20047;-58
2022/09/19 03:28:54;;;;;;;13.55;3.08;;;;;;;6.81;100.00;101772.22;5072360;28;20123;-59
2022/09/19 03:31:21;;;;;;;10.98;2.88;;;;;;;6.88;100.00;101784.50;5072529;28;20051;-60
2022/09/19 03:33:46;;;;;;;9.68;2.80;;;;;;;6.88;100.00;101779.28;5072538;28;20047;-61
2022/09/19 03:36:12;;;;;;;12.80;3.30;;;;;;;6.86;100.00;101765.38;5072353;28;20371;-58
2022/09/19 03:38:44;;;;;;;13.60;2.92;;;;;;;6.99;100.00;101782.94;5072358;28;20037;-59
2022/09/19 03:41:12;;;;;;;;;;;;;;;7.03;100.00;101781.25;5072669;28;20059;-59
2022/09/19 03:43:42;;;;;;;12.32;2.70;;;;;;;7.04;100.00;101783.88;5072345;28;19930;-64
2022/09/19 03:46:12;;;;;;;10.80;2.60;;;;;;;7.10;100.00;101775.31;5072133;28;20139;-61
2022/09/19 03:48:38;;;;;;;12.55;3.10;;;;;;;7.14;100.00;101782.28;5072060;28;20063;-60
2022/09/19 03:51:04;;;;;;;11.25;2.78;;;;;;;7.14;100.00;101782.28;5071918;28;20352;-61
2022/09/19 03:53:30;;;;;;;9.07;2.72;;;;;;;7.13;100.00;101773.59;5071909;28;20445;-60
2022/09/19 03:55:56;;;;;;;13.88;2.72;;;;;;;7.13;100.00;101764.91;5072051;28;20033;-61
2022/09/19 03:58:23;;;;;;;11.18;2.70;;;;;;;7.18;100.00;101777.16;5072060;28;20051;-62
2022/09/19 04:00:49;;;;;;;13.73;3.00;;;;;;;7.22;100.00;101776.38;5072114;28;20036;-59
2022/09/19 04:03:14;;;;;;;10.88;2.70;;;;;;;7.21;100.00;101779.81;5071881;28;20029;-61
2022/09/19 04:05:40;;;;;;;11.52;2.70;;;;;;;7.16;100.00;101764.97;5071629;28;20090;-59
2022/09/19 04:08:05;;;;;;;10.80;3.00;;;;;;;7.24;100.00;101790.28;5071806;28;20047;-59
2022/09/19 04:10:30;;;;;;;11.07;3.30;;;;;;;7.20;100.00;101782.41;5071668;28;20354;-61
2022/09/19 04:12:56;;;;;;;17.85;3.25;;;;;;;7.20;100.00;101787.59;5071991;28;20036;-61
2022/09/19 04:15:21;;;;;;;12.30;2.90;;;;;;;7.16;100.00;101796.22;5072011;28;20124;-59
2022/09/19 04:17:47;;;;;;;11.27;2.95;;;;;;;7.13;100.00;101791.81;5071685;28;20135;-60
2022/09/19 04:20:12;;;;;;;12.77;3.13;;;;;;;7.06;100.00;101795.19;5071654;28;20367;-60
2022/09/19 04:22:37;;;;;;;15.10;3.05;;;;;;;7.05;100.00;101798.66;5071819;28;20039;-61
2022/09/19 04:25:05;;;;;;;9.80;2.72;;;;;;;7.05;100.00;101796.06;5071609;28;20106;-61
2022/09/19 04:27:30;;;;;;;17.48;2.85;;;;;;;7.03;100.00;101799.47;5071821;28;20043;-59
2022/09/19 04:29:55;;;;;;;11.82;3.30;;;;;;;7.04;100.00;101798.63;5071736;28;20119;-61
2022/09/19 04:32:21;;;;;;;13.45;2.90;;;;;;;7.04;100.00;101796.91;5071287;28;20029;-60
2022/09/19 04:34:47;;;;;;;12.50;3.03;;;;;;;7.11;100.00;101814.34;5071432;28;20058;-60
2022/09/19 04:37:14;;;;;;;11.23;3.00;;;;;;;7.15;100.00;101799.66;5071435;28;20448;-61
2022/09/19 04:39:40;;;;;;;12.88;2.90;;;;;;;7.14;100.00;101793.59;5071577;28;20036;-60
2022/09/19 04:42:05;;;;;;;10.38;2.90;;;;;;;7.22;100.00;101802.41;5071505;28;20368;-61
2022/09/19 04:44:30;;;;;;;13.68;3.05;;;;;;;7.20;100.00;101804.09;5070842;28;20081;-61
2022/09/19 04:46:56;;;;;;;10.98;3.33;;;;;;;7.27;100.00;101807.69;5071491;28;20055;-61
2022/09/19 04:49:21;;;;;;;13.15;3.25;;;;;;;7.20;100.00;101800.63;5071598;28;20100;-61
2022/09/19 04:51:47;;;;;;;10.40;3.50;;;;;;;7.23;100.00;101814.56;5071415;28;20037;-61
2022/09/19 04:54:14;;;;;;;11.38;3.28;;;;;;;7.26;100.00;101816.34;5071687;28;20047;-61
2022/09/19 04:56:39;;;;;;;14.20;3.20;;;;;;;7.22;100.00;101812.81;5069078;28;20047;-54
2022/09/19 04:59:05;;;;;;;14.02;3.33;;;;;;;7.25;100.00;101817.19;5056576;28;20357;-64
2022/09/19 05:01:30;;;;;;;7.57;2.90;;;;;;;7.29;100.00;101818.97;5051430;28;20057;-61
2022/09/19 05:03:56;;;;;;;10.25;2.85;;;;;;;7.34;100.00;101822.53;5051093;28;20048;-63
2022/09/19 05:06:22;;;;;;;8.75;3.17;;;;;;;7.33;100.00;101816.44;5051294;28;20553;-63
2022/09/19 05:08:47;;;;;;;16.60;3.30;;;;;;;7.42;100.00;101826.16;5059398;28;20036;-68
2022/09/19 05:11:13;;;;;;;10.40;2.80;;;;;;;7.43;100.00;101825.28;5068470;28;20115;-67
2022/09/19 05:13:39;;;;;;;11.73;3.13;;;;;;;7.24;100.00;101785.09;5071300;28;20028;-69
2022/09/19 05:16:05;;;;;;;11.63;3.15;;;;;;;7.46;100.00;101816.63;5071194;28;20046;-68
2022/09/19 05:18:35;;;;;;;8.80;2.92;;;;;;;7.58;100.00;101833.34;5071415;28;20051;-69
2022/09/19 05:21:07;;;;;;;13.35;3.22;;;;;;;7.49;100.00;101821.88;5071694;28;20079;-68
2022/09/19 05:23:36;;;;;;;14.02;3.50;;;;;;;7.58;100.00;101835.06;5068846;28;20233;-67
2022/09/19 05:26:04;;;;;;;10.00;3.13;;;;;;;7.56;100.00;101839.38;5063403;28;20339;-69
2022/09/19 05:28:29;;;;;;;18.13;3.25;;;;;;;7.67;100.00;101837.78;5055048;28;20063;-67
2022/09/19 05:30:55;;;;;;;9.73;3.10;;;;;;;7.73;100.00;101842.22;5054855;28;20444;-68
2022/09/19 05:33:23;;;;;;;12.57;3.40;;;;;;;7.74;100.00;101838.75;5054747;28;20044;-69
2022/09/19 05:35:50;;;;;;;12.13;3.58;;;;;;;7.79;100.00;101847.53;5054766;28;20036;-68
2022/09/19 05:38:15;;;;;;;10.38;3.20;;;;;;;7.61;100.00;101814.28;5054695;28;20063;-67
2022/09/19 05:40:40;;;;;;;10.93;3.17;;;;;;;7.68;100.00;101831.72;5054716;28;20432;-70
2022/09/19 05:43:06;;;;;;;16.08;3.42;;;;;;;7.71;100.00;101836.09;5054082;28;20451;-69
2022/09/19 05:45:31;;;;;;;12.85;3.88;;;;;;;7.69;100.00;101844.78;5054191;28;20053;-67
2022/09/19 05:48:04;;;;;;;12.50;2.95;;;;;;;7.72;100.00;101856.09;5054314;28;20131;-67
2022/09/19 05:50:31;;;;;;;13.68;3.42;;;;;;;7.68;100.00;101856.03;5054341;28;20025;-68
2022/09/19 05:55:42;;;;;;;11.70;2.92;;;;;;;7.66;100.00;101855.13;5054684;28;20163;-67
2022/09/19 05:58:09;;;;;;;13.30;3.35;;;;;;;7.62;100.00;101855.94;5054055;28;20108;-67
2022/09/19 06:00:37;;;;;;;12.25;3.30;;;;;;;7.65;100.00;101865.53;5053974;28;20452;-67
2022/09/19 06:03:05;;;;;;;11.02;3.15;;;;;;;7.62;100.00;101855.94;5054222;28;20033;-66
2022/09/19 06:05:37;;;;;;;13.52;4.10;;;;;;;7.69;100.00;101865.59;5053823;28;20483;-66
2022/09/19 06:08:04;;;;;;;18.63;3.60;;;;;;;7.73;100.00;101861.31;5054362;28;20040;-67
2022/09/19 06:10:33;;;;;;;13.80;3.90;;;;;;;7.78;100.00;101854.47;5054087;28;20025;-67
2022/09/19 06:12:59;;;;;;;12.65;3.88;;;;;;;7.73;100.00;101822.25;5053614;28;20078;-68
2022/09/19 06:15:24;;;;;;;12.70;3.90;;;;;;;8.33;100.00;101871.72;5054098;28;20033;-69
2022/09/19 06:17:58;;;;;;;18.13;4.43;;;;;;;8.75;100.00;101867.84;5053919;28;20033;-69
2022/09/19 06:20:24;;;;;;;14.90;3.78;;;;;;;8.76;100.00;101845.25;5053985;28;20044;-69
2022/09/19 06:22:55;;;;;;;18.60;3.90;;;;;;;8.98;100.00;101871.56;5053906;28;20044;-70
2022/09/19 06:25:21;;;;;;;15.73;3.78;;;;;;;9.27;100.00;101869.22;5053851;28;20078;-71
2022/09/19 06:27:53;;;;;;;16.15;3.58;;;;;;;9.52;100.00;101872.03;5053761;28;20137;-71
2022/09/19 06:30:18;;;;;;;14.65;3.55;;;;;;;9.53;100.00;101863.31;5056641;28;20037;-55
2022/09/19 06:32:43;;;;;;;14.68;3.42;;;;;;;9.60;100.00;101878.16;5063456;28;20700;-54
2022/09/19 06:35:09;;;;;;;13.07;3.45;;;;;;;9.56;100.00;101877.28;5063320;28;20107;-55
2022/09/19 06:37:34;;;;;;;17.00;3.55;;;;;;;9.56;100.00;101879.88;5056700;28;20036;-61
2022/09/19 06:40:00;;;;;;;10.82;3.40;;;;;;;9.48;100.00;101878.97;5053535;28;20033;-61
2022/09/19 06:42:25;;;;;;;12.60;3.20;;;;;;;9.44;100.00;101874.56;5053467;28;20444;-62
2022/09/19 06:44:50;;;;;;;11.27;3.55;;;;;;;9.23;100.00;101837.81;5053189;28;20053;-62
2022/09/19 06:47:16;;;;;;;17.20;3.83;;;;;;;9.50;100.00;101881.59;5053220;28;20479;-61
2022/09/19 06:49:41;;;;;;;12.90;3.88;;;;;;;9.55;100.00;101887.72;5061725;28;20039;-62
2022/09/19 06:52:06;;;;;;;14.65;3.45;;;;;;;9.51;100.00;101886.84;5055781;28;20395;-61
2022/09/19 06:54:32;;;;;;;19.45;4.00;;;;;;;9.57;100.00;101891.22;5060885;28;20032;-61
2022/09/19 06:56:57;;;;;;;15.68;4.10;;;;;;;9.58;100.00;101903.41;5062306;28;20440;-62
2022/09/19 06:59:22;;;;;;;14.48;3.90;;;;;;;9.62;100.00;101900.84;5055004;28;20036;-61
2022/09/19 07:01:47;;;;;;;13.90;4.03;;;;;;;9.71;100.00;101900.91;5060953;28;20040;-62
2022/09/19 07:04:13;;;;;;;17.90;4.50;;;;;;;9.86;100.00;101904.50;5061832;28;20075;-61
2022/09/19 07:06:39;;;;;;;18.80;4.38;;;;;;;9.86;100.00;101910.59;5062259;28;20032;-61
2022/09/19 07:09:06;;;;;;;17.85;3.67;;;;;;;9.87;100.00;101904.47;5063500;28;20077;-63
2022/09/19 07:11:32;;;;;;;12.20;3.20;;;;;;;9.98;100.00;101908.06;5061616;28;20384;-63
2022/09/19 07:13:58;;;;;;;16.35;3.33;;;;;;;9.99;100.00;101920.28;5072069;28;20111;-64
2022/09/19 07:16:23;;;;;;;12.02;3.15;;;;;;;10.03;100.00;101916.81;5072638;28;20119;-63
2022/09/19 07:18:48;;;;;;;17.50;3.42;;;;;;;10.09;100.00;101922.06;5072592;28;20371;-62
2022/09/19 07:21:14;;;;;;;13.80;3.10;;;;;;;10.32;100.00;101923.97;5072543;28;20047;-61
2022/09/19 07:23:39;;;;;;;13.35;3.47;;;;;;;10.47;100.00;101918.81;5069157;28;20081;-61
2022/09/19 07:26:05;;;;;;;14.18;2.75;;;;;;;10.65;100.00;101931.09;5072668;28;20055;-63
2022/09/19 07:28:31;;;;;;;12.05;3.05;;;;;;;10.75;100.00;101936.34;5072515;28;20032;-63
2022/09/19 07:31:01;;;;;;;12.30;2.72;;;;;;;10.78;100.00;101927.63;5072270;28;20051;-63
2022/09/19 07:33:28;;;;;;;12.40;2.60;;;;;;;10.86;100.00;101933.78;5072397;28;20036;-62
2022/09/19 07:35:54;;;;;;;18.42;3.00;;;;;;;10.96;100.00;101946.03;5071901;28;20115;-64
2022/09/19 07:38:22;;;;;;;14.40;2.70;;;;;;;11.03;100.00;101931.22;5071945;28;20102;-61
2022/09/19 07:40:48;;;;;;;11.02;3.50;;;;;;;11.13;100.00;101946.06;5070932;28;20063;-62
2022/09/19 07:43:15;;;;;;;17.33;3.00;;;;;;;11.13;100.00;101933.84;5071208;28;20087;-60
2022/09/19 07:45:49;;;;;;;15.70;2.72;;;;;;;11.25;100.00;101945.22;5071821;28;20100;-61
2022/09/19 07:48:16;;;;;;;12.25;2.75;;;;;;;11.29;100.00;101949.56;5072115;28;20106;-60
2022/09/19 07:50:43;;;;;;;12.48;2.70;;;;;;;11.29;100.00;101939.97;5071530;28;20029;-61
2022/09/19 07:53:14;;;;;;;11.13;2.40;;;;;;;11.38;100.00;101949.59;5071446;28;20490;-61
2022/09/19 07:55:43;;;;;;;12.77;2.60;;;;;;;11.37;100.00;101948.72;5072124;28;20036;-59
2022/09/19 07:58:12;;;;;;;10.02;2.30;;;;;;;11.45;100.00;101952.22;5071719;28;20028;-61
2022/09/19 08:00:38;;;;;;;10.02;2.20;;;;;;;11.40;100.00;101943.50;5071873;28;20653;-59
2022/09/19 08:03:08;;;;;;;12.05;2.72;;;;;;;11.42;100.00;101948.75;5060463;28;20076;-60
2022/09/19 08:05:36;;;;;;;12.98;2.35;;;;;;;11.52;100.00;101955.72;5051513;28;20036;-59
2022/09/19 08:08:02;;;;;;;14.90;2.67;;;;;;;11.57;100.00;101955.72;5051704;28;20356;-60
2022/09/19 08:10:28;;;;;;;10.00;2.10;;;;;;;11.62;100.00;101959.22;5051639;28;20044;-60
2022/09/19 08:12:58;;;;;;;11.55;2.65;;;;;;;11.61;100.00;101957.47;5052160;28;20815;-59
2022/09/19 08:15:23;;;;;;;12.95;2.40;;;;;;;11.67;100.00;101962.72;5068814;28;20063;-60
2022/09/19 08:17:59;;;;;;;12.75;2.67;;;;;;;11.70;100.00;101962.72;5069815;28;20048;-61
2022/09/19 08:20:25;;;;;;;9.90;2.28;;;;;;;11.70;100.00;101974.09;5068479;28;20376;-60
2022/09/19 08:22:59;;;;;;;12.18;2.53;;;;;;;11.73;100.00;101981.09;5068252;28;20037;-60
2022/09/19 08:25:25;;;;;;;13.25;2.50;;;;;;;11.79;100.00;101975.84;5070956;28;20048;-60
2022/09/19 08:27:51;;;;;;;11.95;2.60;;;;;;;11.77;100.00;101975.88;5071518;28;20090;-62
2022/09/19 08:30:18;;;;;;;15.20;2.80;;;;;;;11.80;100.00;101978.47;5071071;28;20363;-60
2022/09/19 08:32:45;;;;;;;10.27;2.78;;;;;;;12.42;100.00;101976.63;5071637;28;20037;-60
2022/09/19 08:35:10;;;;;;;13.23;2.70;;;;;;;13.34;100.00;101977.97;5071651;28;20033;-61
2022/09/19 08:37:36;;;;;;;14.63;2.85;;;;;;;14.17;100.00;101979.03;5071506;28;20048;-62
2022/09/19 08:40:16;;;;;;;15.38;2.58;;;;;;;14.56;100.00;101971.59;5071541;28;20036;-59
2022/09/19 08:42:55;;;;;;;13.43;2.97;;;;;;;14.36;100.00;101979.72;5071009;28;20060;-59
2022/09/19 08:45:36;;;;;;;10.63;2.50;;;;;;;14.26;100.00;101983.31;5071379;28;20075;-60
2022/09/19 08:48:05;;;;;;;9.30;2.20;;;;;;;13.90;100.00;101964.38;5071363;28;20029;-60
2022/09/19 08:50:34;;;;;;;10.43;1.95;;;;;;;13.58;100.00;101988.31;5071256;28;20032;-59
2022/09/19 08:53:04;;;;;;;11.80;2.22;;;;;;;13.26;100.00;101984.16;5071553;28;20048;-62
2022/09/19 08:55:33;;;;;;;11.40;2.30;;;;;;;13.11;100.00;101993.88;5072832;28;20032;-62
2022/09/19 08:58:00;;;;;;;13.68;2.10;;;;;;;13.06;100.00;101990.38;5074436;28;20039;-63
2022/09/19 09:00:32;;;;;;;15.85;2.00;;;;;;;13.08;100.00;101993.00;5075363;28;20036;-61
2022/09/19 09:03:00;;;;;;;9.05;2.25;;;;;;;13.09;100.00;101989.50;5075373;28;20139;-62
2022/09/19 09:05:37;;;;;;;14.45;2.17;;;;;;;13.07;100.00;101978.13;5075470;28;20044;-62
2022/09/19 09:08:30;;;;;;;9.88;1.95;;;;;;;13.16;100.00;101988.63;5075083;28;20040;-63
2022/09/19 09:11:16;;;;;;;11.13;1.90;;;;;;;13.40;100.00;101987.56;5075389;28;20032;-63
2022/09/19 09:14:16;;;;;;;11.90;1.85;;;;;;;13.54;100.00;101980.47;5075165;28;20466;-65
2022/09/19 09:17:08;;;;;;;13.60;1.80;;;;;;;13.78;100.00;101982.91;5075009;28;20726;-63
2022/09/19 09:20:13;;;;;;;10.85;1.63;;;;;;;13.98;100.00;101985.38;5075054;28;20048;-62
2022/09/19 09:22:45;;;;;;;12.27;2.08;;;;;;;14.23;100.00;101967.56;5074971;28;20112;-63
2022/09/19 09:25:18;;;;;;;10.38;1.40;;;;;;;14.43;100.00;101981.41;5075002;28;20128;-65
2022/09/19 09:28:26;;;;;;;9.43;1.75;;;;;;;14.27;99.41;101943.81;5074791;28;20052;-65
2022/09/19 09:30:59;;;;;;;8.77;1.80;;;;;;;14.63;98.51;101962.75;5052472;28;20051;-63
2022/09/19 09:33:29;;;;;;;12.48;2.00;;;;;;;14.69;95.11;101975.84;5074436;28;20036;-62
2022/09/19 09:36:04;;;;;;;10.07;1.70;;;;;;;14.81;93.46;101977.47;5074702;28;20032;-59
2022/09/19 09:38:32;;;;;;;9.77;1.80;;;;;;;14.88;94.87;101977.38;5074668;28;20071;-62
2022/09/19 09:44:16;;;;;;;10.32;1.73;;;;;;;15.04;91.41;101980.69;5054678;28;20056;-61
2022/09/19 09:46:53;;;;;;;8.32;1.38;;;;;;;15.29;92.88;101970.63;5054668;28;20052;-61
2022/09/19 09:49:22;;;;;;;11.45;1.83;;;;;;;15.39;89.34;101979.28;5054649;28;20091;-61
2022/09/19 09:52:00;;;;;;;5.82;1.52;;;;;;;15.53;88.17;101977.31;5057081;28;20123;-62
2022/09/19 09:57:51;;;;;;;7.00;1.85;;;;;;;15.55;87.00;101988.72;5037880;28;20128;-61
2022/09/19 10:03:34;;;;;;;11.52;1.60;;;;;;;15.62;87.36;101977.19;5053765;28;20047;-61
2022/09/19 10:06:25;;;;;;;7.63;1.70;;;;;;;15.77;89.38;101973.41;5054391;28;20053;-62
2022/09/19 10:09:18;;;;;;;6.53;1.55;;;;;;;15.85;86.12;101969.75;5053762;28;20322;-61
2022/09/19 10:12:07;;;;;;;11.23;1.58;;;;;;;15.78;83.37;101969.88;5054068;28;20120;-61
2022/09/19 10:14:36;;;;;;;6.85;1.30;;;;;;;15.56;86.63;101979.94;5025310;28;20127;-61
2022/09/19 10:17:04;;;;;;;4.97;1.15;;;;;;;15.45;80.74;101982.69;5053921;28;20033;-62
2022/09/19 10:19:36;;;;;;;8.07;1.27;;;;;;;15.38;80.32;101986.34;5053834;28;20033;-62
2022/09/19 10:22:02;;;;;;;7.03;1.42;;;;;;;15.44;80.09;101980.06;5053957;28;20043;-62
2022/09/19 10:24:45;;;;;;;8.40;1.15;;;;;;;15.73;84.25;101979.66;5053902;28;20045;-61
2022/09/19 10:27:16;;;;;;;9.70;1.30;;;;;;;15.89;77.90;101989.94;5053800;28;20033;-61
2022/09/19 10:29:51;;;;;;;6.28;1.42;;;;;;;15.86;78.17;101984.72;5053399;28;20614;-61
2022/09/19 10:32:19;;;;;;;5.30;1.33;;;;;;;15.87;78.33;101988.22;5053545;28;20509;-60
2022/09/19 10:34:45;;;;;;;7.10;1.38;;;;;;;15.75;77.23;101985.78;5053790;28;20131;-62
2022/09/19 10:37:14;;;;;;;6.97;1.50;;;;;;;15.77;78.44;101986.63;5053643;28;20454;-61
2022/09/19 10:39:44;;;;;;;5.57;1.42;;;;;;;15.87;79.02;101985.59;5053566;28;20040;-61
2022/09/19 10:42:36;;;;;;;8.40;1.42;;;;;;;15.90;81.69;101990.81;5053319;28;20051;-61
2022/09/19 10:45:15;;;;;;;8.70;1.63;;;;;;;15.88;79.75;101998.75;5053396;28;20052;-62
2022/09/19 10:47:41;;;;;;;9.23;1.25;;;;;;;15.73;81.59;101992.84;5053467;28;20033;-62
2022/09/19 10:50:15;;;;;;;9.35;1.73;;;;;;;15.40;83.83;101989.81;5053531;28;20098;-63
2022/09/19 10:52:42;;;;;;;10.75;1.70;;;;;;;15.09;83.13;101983.22;5053318;28;20037;-62
2022/09/19 10:55:13;;;;;;;7.50;1.38;;;;;;;15.06;82.04;101986.81;5053394;28;20045;-62
2022/09/19 10:57:45;;;;;;;6.70;1.60;;;;;;;15.07;81.54;101993.78;5053238;28;20036;-62
2022/09/19 11:00:30;;;;;;;;;;;;;;;15.16;85.76;101990.16;5053829;28;20310;-60
2022/09/19 11:02:58;;;;;;;7.35;1.50;;;;;;;15.42;81.67;101981.84;5053091;28;19917;-56
2022/09/19 11:05:26;;;;;;;8.23;1.65;;;;;;;15.99;83.09;101974.78;5052949;28;20064;-62
2022/09/19 11:08:00;;;;;;;6.93;1.30;;;;;;;16.35;75.53;101984.69;5051976;28;20090;-58
2022/09/19 11:10:41;;;;;;;5.90;1.13;;;;;;;16.61;76.59;101978.03;5070703;28;20040;-63
2022/09/19 11:13:15;;;;;;;6.28;1.40;;;;;;;16.73;73.50;101990.16;5069222;28;20036;-63
2022/09/19 11:16:11;;;;;;;7.95;1.48;;;;;;;16.60;75.13;101993.03;5071591;28;20036;-62
2022/09/19 11:19:02;;;;;;;6.35;1.40;;;;;;;16.46;72.97;101986.25;5071756;28;20032;-61
2022/09/19 11:21:53;;;;;;;8.77;1.77;;;;;;;16.38;75.35;101975.84;5066311;28;20338;-61
2022/09/19 11:24:33;;;;;;;6.80;1.10;;;;;;;16.25;74.53;101975.22;5057867;28;20106;-61
2022/09/19 11:27:25;;;;;;;9.00;1.85;;;;;;;16.21;76.45;101970.88;5052696;28;20039;-61
2022/09/19 11:30:07;;;;;;;6.50;1.30;;;;;;;16.28;71.68;101972.47;5052103;28;20685;-60
2022/09/19 11:32:44;;;;;;;7.32;1.30;;;;;;;16.34;71.25;101974.16;5052326;28;20098;-61
2022/09/19 11:35:26;;;;;;;9.07;1.80;;;;;;;16.43;73.23;101976.63;5052310;28;20040;-59
2022/09/19 11:38:19;;;;;;;8.73;1.80;;;;;;;16.40;74.34;101984.59;5052377;28;20103;-60
2022/09/19 11:41:08;;;;;;;9.95;1.75;;;;;;;15.93;78.79;101994.25;5051908;28;20495;-61
2022/09/19 11:43:56;;;;;;;8.10;1.83;;;;;;;14.91;87.57;101992.25;5052370;28;20036;-61
2022/09/19 11:46:38;;;;;;;7.90;1.50;;;;;;;14.39;94.35;102000.72;5051911;28;20128;-62
2022/09/19 11:49:25;;;;;;;5.70;1.42;;;;;;;14.22;97.33;101985.13;5051983;28;20033;-61
2022/09/19 11:52:10;;;;;;;8.15;1.65;;;;;;;14.27;96.06;101979.81;5052149;28;20029;-60